createdAt,value
2023-04-09T00:00:12.723Z,94292.50
2023-04-09T00:02:39.449Z,94288.53
2023-04-09T00:05:07.507Z,94288.88
2023-04-09T00:07:34.317Z,94289.22
2023-04-09T00:10:00.999Z,94297.88
2023-04-09T00:12:27.687Z,94291.19
2023-04-09T00:14:54.348Z,94292.09
2023-04-09T00:17:21.630Z,94289.13
2023-04-09T00:19:48.447Z,94292.06
2023-04-09T00:22:15.809Z,94290.72
2023-04-09T00:24:42.413Z,94292.50
2023-04-09T00:27:08.959Z,94295.44
2023-04-09T00:29:35.571Z,94291.59
2023-04-09T00:32:02.366Z,94303.63
2023-04-09T00:34:29.066Z,94305.63
2023-04-09T00:36:55.852Z,94307.41
2023-04-09T00:39:22.460Z,94311.44
2023-04-09T00:41:49.061Z,94311.53
2023-04-09T00:44:15.804Z,94307.66
2023-04-09T00:46:42.443Z,94300.00
2023-04-09T00:49:09.135Z,94301.66
2023-04-09T00:51:36.776Z,94291.97
2023-04-09T00:54:03.500Z,94301.44
2023-04-09T00:56:30.315Z,94297.72
2023-04-09T00:58:57.224Z,94301.75
2023-04-09T01:01:23.851Z,94300.19
2023-04-09T01:03:51.194Z,94301.75
2023-04-09T01:06:38.564Z,94300.09
2023-04-09T01:09:23.426Z,94304.44
2023-04-09T01:12:08.514Z,94310.44
2023-04-09T01:14:41.800Z,94307.56
2023-04-09T01:17:17.323Z,94307.91
2023-04-09T01:20:05.471Z,94312.31
2023-04-09T01:22:47.518Z,94311.44
2023-04-09T01:25:26.509Z,94313.75
2023-04-09T01:28:08.366Z,94316.56
2023-04-09T01:30:35.410Z,94309.56
2023-04-09T01:33:04.347Z,94312.34
2023-04-09T01:35:31.101Z,94304.44
2023-04-09T01:37:58.586Z,94309.28
2023-04-09T01:40:25.303Z,94316.56
2023-04-09T01:42:53.734Z,94308.97
2023-04-09T01:45:21.103Z,94305.66
2023-04-09T01:47:48.136Z,94310.78
2023-04-09T01:50:15.347Z,94306.78
2023-04-09T01:52:42.288Z,94309.28
2023-04-09T01:55:09.126Z,94307.66
2023-04-09T01:57:35.975Z,94316.88
2023-04-09T02:00:02.750Z,94306.09
2023-04-09T02:02:40.714Z,94308.63
2023-04-09T02:05:10.950Z,94304.75
2023-04-09T02:07:45.580Z,94302.75
2023-04-09T02:10:13.795Z,94313.22
2023-04-09T02:12:45.446Z,94306.78
2023-04-09T02:15:12.829Z,94312.88
2023-04-09T02:17:39.623Z,94301.88
2023-04-09T02:20:07.530Z,94305.31
2023-04-09T02:22:34.120Z,94301.56
2023-04-09T02:25:00.727Z,94305.09
2023-04-09T02:27:27.347Z,94303.22
2023-04-09T02:29:53.995Z,94304.44
2023-04-09T02:32:20.581Z,94309.56
2023-04-09T02:34:47.315Z,94311.88
2023-04-09T02:37:13.889Z,94303.88
2023-04-09T02:39:40.526Z,94291.88
2023-04-09T02:42:08.031Z,94297.31
2023-04-09T02:44:35.003Z,94302.44
2023-04-09T02:47:04.468Z,94292.31
2023-04-09T02:49:31.065Z,94300.41
2023-04-09T02:51:57.689Z,94292.09
2023-04-09T02:54:24.357Z,94289.09
2023-04-09T02:56:51.011Z,94283.88
2023-04-09T02:59:17.626Z,94289.97
2023-04-09T03:01:44.291Z,94289.63
2023-04-09T03:04:11.049Z,94293.44
2023-04-09T03:06:37.680Z,94294.00
2023-04-09T03:09:04.386Z,94289.41
2023-04-09T03:11:30.999Z,94294.78
2023-04-09T03:13:57.599Z,94288.44
2023-04-09T03:16:27.083Z,94292.25
2023-04-09T03:18:53.981Z,94293.97
2023-04-09T03:21:21.096Z,94295.44
2023-04-09T03:23:47.652Z,94294.88
2023-04-09T03:26:14.300Z,94294.31
2023-04-09T03:28:40.971Z,94293.66
2023-04-09T03:31:07.686Z,94295.44
2023-04-09T03:33:34.474Z,94289.56
2023-04-09T03:36:01.206Z,94289.22
2023-04-09T03:38:27.835Z,94294.00
2023-04-09T03:40:56.042Z,94291.34
2023-04-09T03:43:22.618Z,94287.78
2023-04-09T03:45:49.220Z,94292.88
2023-04-09T03:48:15.944Z,94290.53
2023-04-09T03:50:42.919Z,94297.09
2023-04-09T03:53:09.601Z,94299.00
2023-04-09T03:55:37.674Z,94305.66
2023-04-09T03:58:04.336Z,94299.56
2023-04-09T04:00:30.906Z,94303.19
2023-04-09T04:02:57.754Z,94302.44
2023-04-09T04:05:27.795Z,94301.41
2023-04-09T04:07:55.020Z,94307.22
2023-04-09T04:10:21.644Z,94310.03
2023-04-09T04:12:48.351Z,94306.84
2023-04-09T04:15:15.057Z,94309.81
2023-04-09T04:17:41.760Z,94309.38
2023-04-09T04:20:08.985Z,94307.63
2023-04-09T04:22:35.878Z,94299.19
2023-04-09T04:25:03.722Z,94310.28
2023-04-09T04:27:30.422Z,94306.41
2023-04-09T04:29:59.042Z,94312.69
2023-04-09T04:32:26.189Z,94312.16
2023-04-09T04:34:52.811Z,94311.50
2023-04-09T04:37:19.625Z,94319.38
2023-04-09T04:39:46.179Z,94319.59
2023-04-09T04:42:12.820Z,94312.06
2023-04-09T04:44:39.434Z,94309.84
2023-04-09T04:47:06.053Z,94300.53
2023-04-09T04:49:32.777Z,94316.28
2023-04-09T04:51:59.405Z,94314.47
2023-04-09T04:54:26.192Z,94313.16
2023-04-09T04:56:52.837Z,94321.34
2023-04-09T04:59:19.575Z,94309.81
2023-04-09T05:01:46.289Z,94317.50
2023-04-09T05:04:12.893Z,94315.72
2023-04-09T05:06:39.500Z,94317.63
2023-04-09T05:09:06.295Z,94318.28
2023-04-09T05:11:32.893Z,94319.50
2023-04-09T05:13:59.545Z,94315.88
2023-04-09T05:16:26.143Z,94315.66
2023-04-09T05:18:52.890Z,94309.78
2023-04-09T05:21:19.681Z,94314.78
2023-04-09T05:23:46.504Z,94313.75
2023-04-09T05:26:13.275Z,94307.88
2023-04-09T05:28:39.872Z,94310.09
2023-04-09T05:31:12.853Z,94298.66
2023-04-09T05:33:39.799Z,94305.63
2023-04-09T05:36:06.817Z,94309.97
2023-04-09T05:38:33.620Z,94311.75
2023-04-09T05:41:00.740Z,94305.06
2023-04-09T05:43:27.391Z,94317.38
2023-04-09T05:45:54.024Z,94313.56
2023-04-09T05:48:21.191Z,94312.78
2023-04-09T05:50:55.425Z,94321.53
2023-04-09T05:53:22.602Z,94308.84
2023-04-09T05:55:51.740Z,94308.22
2023-04-09T05:58:21.701Z,94312.00
2023-04-09T06:00:48.390Z,94304.44
2023-04-09T06:03:15.319Z,94312.31
2023-04-09T06:05:42.077Z,94309.78
2023-04-09T06:08:09.175Z,94308.31
2023-04-09T06:10:35.870Z,94307.22
2023-04-09T06:13:02.537Z,94313.88
2023-04-09T06:15:29.162Z,94317.53
2023-04-09T06:17:57.515Z,94311.66
2023-04-09T06:20:25.941Z,94311.13
2023-04-09T06:22:52.710Z,94313.75
2023-04-09T06:25:19.280Z,94316.41
2023-04-09T06:27:46.074Z,94305.00
2023-04-09T06:30:12.911Z,94311.66
2023-04-09T06:32:50.990Z,94309.91
2023-04-09T06:35:21.010Z,94310.75
2023-04-09T06:37:47.597Z,94320.44
2023-04-09T06:40:14.848Z,94311.78
2023-04-09T06:42:41.521Z,94311.91
2023-04-09T06:45:08.915Z,94318.53
2023-04-09T06:47:36.369Z,94327.56
2023-04-09T06:50:03.380Z,94322.13
2023-04-09T06:52:30.336Z,94319.88
2023-04-09T06:54:56.969Z,94322.53
2023-04-09T06:57:23.630Z,94326.97
2023-04-09T06:59:50.411Z,94330.56
2023-04-09T07:02:17.199Z,94330.91
2023-04-09T07:04:43.992Z,94324.44
2023-04-09T07:07:10.692Z,94322.50
2023-04-09T07:09:37.287Z,94320.44
2023-04-09T07:12:03.919Z,94321.88
2023-04-09T07:14:30.692Z,94327.44
2023-04-09T07:16:57.287Z,94334.97
2023-04-09T07:19:23.934Z,94322.47
2023-04-09T07:21:51.015Z,94324.34
2023-04-09T07:24:17.657Z,94322.50
2023-04-09T07:26:44.261Z,94330.09
2023-04-09T07:29:11.110Z,94333.97
2023-04-09T07:31:37.799Z,94333.25
2023-04-09T07:34:04.612Z,94325.53
2023-04-09T07:36:31.893Z,94322.13
2023-04-09T07:38:58.683Z,94332.06
2023-04-09T07:41:25.293Z,94324.78
2023-04-09T07:43:52.070Z,94333.16
2023-04-09T07:46:20.844Z,94323.84
2023-04-09T07:48:48.498Z,94330.31
2023-04-09T07:51:15.381Z,94324.81
2023-04-09T07:53:42.036Z,94335.28
2023-04-09T07:56:08.773Z,94331.59
2023-04-09T07:58:37.920Z,94344.50
2023-04-09T08:01:04.815Z,94336.03
2023-04-09T08:03:31.819Z,94346.47
2023-04-09T08:05:58.675Z,94334.75
2023-04-09T08:08:25.339Z,94338.94
2023-04-09T08:10:52.166Z,94336.16
2023-04-09T08:13:18.795Z,94335.16
2023-04-09T08:15:45.390Z,94338.59
2023-04-09T08:18:11.951Z,94338.06
2023-04-09T08:20:44.892Z,94338.91
2023-04-09T08:23:12.313Z,94343.41
2023-04-09T08:25:38.961Z,94336.94
2023-04-09T08:28:06.466Z,94345.25
2023-04-09T08:30:34.340Z,94335.34
2023-04-09T08:33:02.169Z,94336.44
2023-04-09T08:35:31.136Z,94332.91
2023-04-09T08:37:57.974Z,94333.59
2023-04-09T08:40:24.873Z,94329.09
2023-04-09T08:42:56.044Z,94331.13
2023-04-09T08:45:22.921Z,94337.31
2023-04-09T08:47:51.479Z,94330.69
2023-04-09T08:50:18.515Z,94331.13
2023-04-09T08:52:48.152Z,94324.59
2023-04-09T08:55:14.924Z,94325.50
2023-04-09T08:57:42.405Z,94328.97
2023-04-09T09:00:09.714Z,94326.34
2023-04-09T09:02:36.506Z,94323.88
2023-04-09T09:05:03.224Z,94318.63
2023-04-09T09:07:30.368Z,94320.72
2023-04-09T09:10:03.349Z,94314.00
2023-04-09T09:12:38.596Z,94314.59
2023-04-09T09:15:15.956Z,94312.13
2023-04-09T09:17:55.868Z,94305.69
2023-04-09T09:20:23.405Z,94309.63
2023-04-09T09:22:55.907Z,94306.22
2023-04-09T09:25:24.794Z,94312.88
2023-04-09T09:27:52.446Z,94310.00
2023-04-09T09:30:26.958Z,94295.69
2023-04-09T09:33:05.660Z,94296.13
2023-04-09T09:35:50.180Z,94292.97
2023-04-09T09:38:17.460Z,94294.31
2023-04-09T09:40:44.691Z,94282.19
2023-04-09T09:43:13.503Z,94288.84
2023-04-09T09:45:43.172Z,94289.59
2023-04-09T09:48:12.380Z,94281.13
2023-04-09T09:50:43.443Z,94290.13
2023-04-09T09:53:11.837Z,94289.59
2023-04-09T09:55:40.626Z,94294.34
2023-04-09T09:58:23.651Z,94285.25
2023-04-09T10:00:52.074Z,94287.69
2023-04-09T10:03:25.711Z,94284.38
2023-04-09T10:05:53.558Z,94286.16
2023-04-09T10:08:22.129Z,94288.22
2023-04-09T10:10:50.416Z,94296.00
2023-04-09T10:13:25.618Z,94285.25
2023-04-09T10:15:53.333Z,94292.00
2023-04-09T10:18:20.213Z,94277.53
2023-04-09T10:20:56.192Z,94285.16
2023-04-09T10:23:32.676Z,94270.81
2023-04-09T10:25:59.428Z,94271.97
2023-04-09T10:28:25.983Z,94264.13
2023-04-09T10:30:53.845Z,94266.88
2023-04-09T10:33:28.935Z,94277.69
2023-04-09T10:36:05.749Z,94274.13
2023-04-09T10:38:40.814Z,94273.91
2023-04-09T10:41:15.156Z,94265.50
2023-04-09T10:43:41.766Z,94273.22
2023-04-09T10:46:29.341Z,94261.59
2023-04-09T10:49:35.478Z,94273.28
2023-04-09T10:52:04.863Z,94263.25
2023-04-09T10:54:34.299Z,94257.81
2023-04-09T10:57:18.175Z,94255.28
2023-04-09T10:59:47.780Z,94270.34
2023-04-09T11:02:35.637Z,94259.16
2023-04-09T11:05:17.604Z,94255.06
2023-04-09T11:07:48.440Z,94243.84
2023-04-09T11:10:15.058Z,94261.50
2023-04-09T11:12:43.081Z,94259.75
2023-04-09T11:15:17.794Z,94263.25
2023-04-09T11:17:44.914Z,94261.66
2023-04-09T11:20:12.691Z,94265.78
2023-04-09T11:22:39.372Z,94264.47
2023-04-09T11:25:06.327Z,94273.41
2023-04-09T11:27:38.132Z,94272.34
2023-04-09T11:30:06.347Z,94263.09
2023-04-09T11:32:34.368Z,94262.31
2023-04-09T11:35:01.214Z,94268.63
2023-04-09T11:37:28.172Z,94265.28
2023-04-09T11:39:57.337Z,94252.06
2023-04-09T11:42:25.893Z,94250.28
2023-04-09T11:44:53.540Z,94253.47
2023-04-09T11:47:21.273Z,94261.38
2023-04-09T11:49:47.955Z,94266.72
2023-04-09T11:52:16.753Z,94259.56
2023-04-09T11:54:49.532Z,94262.09
2023-04-09T11:57:16.348Z,94255.50
2023-04-09T11:59:43.322Z,94252.66
2023-04-09T12:02:10.214Z,94256.06
2023-04-09T12:04:37.000Z,94252.41
2023-04-09T12:07:08.081Z,94254.22
2023-04-09T12:09:34.651Z,94241.16
2023-04-09T12:12:02.208Z,94245.16
2023-04-09T12:14:28.794Z,94246.09
2023-04-09T12:16:55.581Z,94247.41
2023-04-09T12:19:25.839Z,94239.19
2023-04-09T12:21:54.764Z,94229.94
2023-04-09T12:24:23.756Z,94243.25
2023-04-09T12:26:50.844Z,94239.78
2023-04-09T12:29:21.636Z,94225.28
2023-04-09T12:31:48.448Z,94230.63
2023-04-09T12:34:15.248Z,94224.03
2023-04-09T12:36:41.927Z,94225.34
2023-04-09T12:39:11.461Z,94230.41
2023-04-09T12:41:38.085Z,94217.28
2023-04-09T12:44:05.279Z,94216.31
2023-04-09T12:46:32.663Z,94215.91
2023-04-09T12:48:59.521Z,94218.59
2023-04-09T12:51:26.170Z,94224.38
2023-04-09T12:53:53.357Z,94213.53
2023-04-09T12:56:20.376Z,94222.31
2023-04-09T12:58:46.999Z,94220.81
2023-04-09T13:01:13.785Z,94216.53
2023-04-09T13:03:41.599Z,94205.84
2023-04-09T13:06:08.790Z,94212.03
2023-04-09T13:08:35.881Z,94207.03
2023-04-09T13:11:02.948Z,94204.47
2023-04-09T13:13:29.791Z,94215.91
2023-04-09T13:15:56.490Z,94202.28
2023-04-09T13:18:23.161Z,94196.97
2023-04-09T13:20:49.754Z,94205.59
2023-04-09T13:23:16.352Z,94202.34
2023-04-09T13:25:42.993Z,94199.06
2023-04-09T13:28:09.924Z,94195.31
2023-04-09T13:30:36.663Z,94207.47
2023-04-09T13:33:03.473Z,94192.13
2023-04-09T13:35:30.729Z,94202.69
2023-04-09T13:37:57.398Z,94203.53
2023-04-09T13:40:24.120Z,94192.72
2023-04-09T13:42:50.772Z,94187.91
2023-04-09T13:45:18.109Z,94194.19
2023-04-09T13:47:44.757Z,94184.38
2023-04-09T13:50:13.211Z,94182.69
2023-04-09T13:52:39.860Z,94176.38
2023-04-09T13:55:07.670Z,94176.88
2023-04-09T13:57:34.310Z,94178.97
2023-04-09T14:00:05.484Z,94183.03
2023-04-09T14:02:32.841Z,94195.72
2023-04-09T14:05:00.197Z,94195.13
2023-04-09T14:07:26.822Z,94191.97
2023-04-09T14:09:53.543Z,94187.56
2023-04-09T14:12:20.435Z,94191.34
2023-04-09T14:14:47.176Z,94197.31
2023-04-09T14:17:13.768Z,94198.31
2023-04-09T14:19:40.453Z,94199.53
2023-04-09T14:22:11.568Z,94209.28
2023-04-09T14:24:40.181Z,94198.38
2023-04-09T14:27:08.245Z,94200.47
2023-04-09T14:29:35.288Z,94197.22
2023-04-09T14:32:02.226Z,94199.84
2023-04-09T14:34:31.413Z,94197.31
2023-04-09T14:36:58.113Z,94198.44
2023-04-09T14:39:24.860Z,94187.19
2023-04-09T14:41:51.874Z,94198.50
2023-04-09T14:44:18.506Z,94193.31
2023-04-09T14:46:45.097Z,94196.88
2023-04-09T14:49:11.808Z,94192.91
2023-04-09T14:51:38.507Z,94196.59
2023-04-09T14:54:05.176Z,94193.88
2023-04-09T14:56:31.819Z,94185.13
2023-04-09T14:58:58.515Z,94187.41
2023-04-09T15:01:26.800Z,94194.13
2023-04-09T15:03:53.705Z,94182.06
2023-04-09T15:06:20.753Z,94186.72
2023-04-09T15:08:47.426Z,94183.28
2023-04-09T15:11:18.007Z,94173.91
2023-04-09T15:13:44.714Z,94168.97
2023-04-09T15:16:11.856Z,94179.13
2023-04-09T15:18:38.565Z,94172.84
2023-04-09T15:21:05.551Z,94170.19
2023-04-09T15:23:32.235Z,94187.59
2023-04-09T15:25:59.169Z,94177.00
2023-04-09T15:28:25.752Z,94176.59
2023-04-09T15:30:54.976Z,94176.56
2023-04-09T15:33:21.540Z,94168.78
2023-04-09T15:35:48.237Z,94164.22
2023-04-09T15:38:14.928Z,94170.94
2023-04-09T15:40:42.591Z,94160.78
2023-04-09T15:43:09.172Z,94157.44
2023-04-09T15:45:35.797Z,94157.00
2023-04-09T15:48:02.450Z,94163.31
2023-04-09T15:50:29.182Z,94169.50
2023-04-09T15:52:56.284Z,94172.41
2023-04-09T15:55:26.823Z,94177.28
2023-04-09T15:57:55.133Z,94172.41
2023-04-09T16:00:22.241Z,94170.03
2023-04-09T16:02:48.780Z,94172.34
2023-04-09T16:05:15.606Z,94167.28
2023-04-09T16:07:42.833Z,94170.19
2023-04-09T16:10:09.741Z,94171.91
2023-04-09T16:12:36.445Z,94174.56
2023-04-09T16:15:03.172Z,94162.03
2023-04-09T16:17:30.789Z,94166.97
2023-04-09T16:19:57.519Z,94163.16
2023-04-09T16:22:24.165Z,94173.53
2023-04-09T16:24:50.861Z,94170.81
2023-04-09T16:27:17.540Z,94176.06
2023-04-09T16:29:44.243Z,94175.31
2023-04-09T16:32:11.031Z,94170.34
2023-04-09T16:34:37.686Z,94171.69
2023-04-09T16:37:04.317Z,94177.63
2023-04-09T16:39:31.058Z,94165.47
2023-04-09T16:42:02.173Z,94176.59
2023-04-09T16:44:28.814Z,94191.22
2023-04-09T16:46:56.450Z,94176.72
2023-04-09T16:49:23.123Z,94178.28
2023-04-09T16:51:51.886Z,94178.59
2023-04-09T16:54:18.763Z,94180.81
2023-04-09T16:56:45.391Z,94170.88
2023-04-09T16:59:12.236Z,94190.97
2023-04-09T17:01:38.877Z,94188.53
2023-04-09T17:04:05.648Z,94194.00
2023-04-09T17:06:32.322Z,94197.75
2023-04-09T17:08:59.050Z,94193.84
2023-04-09T17:11:25.852Z,94192.00
2023-04-09T17:13:52.546Z,94194.34
2023-04-09T17:16:19.174Z,94195.47
2023-04-09T17:18:45.824Z,94198.72
2023-04-09T17:21:12.632Z,94196.09
2023-04-09T17:23:39.207Z,94200.81
2023-04-09T17:26:08.835Z,94190.06
2023-04-09T17:28:36.090Z,94192.72
2023-04-09T17:31:02.761Z,94195.97
2023-04-09T17:33:29.372Z,94202.44
2023-04-09T17:35:57.660Z,94199.53
2023-04-09T17:38:25.253Z,94204.38
2023-04-09T17:40:53.539Z,94203.31
2023-04-09T17:43:20.322Z,94201.66
2023-04-09T17:45:46.999Z,94208.59
2023-04-09T17:48:13.687Z,94205.25
2023-04-09T17:50:40.538Z,94206.97
2023-04-09T17:53:07.574Z,94210.81
2023-04-09T17:55:34.300Z,94209.41
2023-04-09T17:58:01.017Z,94215.25
2023-04-09T18:00:27.793Z,94224.16
2023-04-09T18:02:54.644Z,94221.28
2023-04-09T18:05:23.000Z,94228.59
2023-04-09T18:07:49.840Z,94234.94
2023-04-09T18:10:16.612Z,94227.75
2023-04-09T18:12:43.304Z,94240.94
2023-04-09T18:15:10.479Z,94230.56
2023-04-09T18:17:37.188Z,94230.63
2023-04-09T18:20:04.099Z,94231.72
2023-04-09T18:22:30.820Z,94234.97
2023-04-09T18:24:57.513Z,94241.28
2023-04-09T18:27:24.120Z,94239.53
2023-04-09T18:29:50.690Z,94235.63
2023-04-09T18:32:19.784Z,94236.16
2023-04-09T18:34:47.776Z,94245.31
2023-04-09T18:37:15.151Z,94244.44
2023-04-09T18:39:41.877Z,94243.91
2023-04-09T18:42:08.500Z,94240.75
2023-04-09T18:44:37.541Z,94238.94
2023-04-09T18:47:05.830Z,94248.56
2023-04-09T18:49:33.619Z,94248.88
2023-04-09T18:52:00.876Z,94246.63
2023-04-09T18:54:27.794Z,94251.59
2023-04-09T18:56:54.568Z,94248.25
2023-04-09T18:59:21.903Z,94246.28
2023-04-09T19:01:48.801Z,94243.22
2023-04-09T19:04:15.691Z,94241.19
2023-04-09T19:06:46.223Z,94240.81
2023-04-09T19:09:12.954Z,94248.16
2023-04-09T19:11:39.567Z,94249.28
2023-04-09T19:14:06.249Z,94242.53
2023-04-09T19:16:32.895Z,94249.38
2023-04-09T19:18:59.640Z,94238.38
2023-04-09T19:21:26.576Z,94244.94
2023-04-09T19:23:53.227Z,94246.00
2023-04-09T19:26:19.868Z,94245.97
2023-04-09T19:28:46.904Z,94244.53
2023-04-09T19:31:14.590Z,94238.91
2023-04-09T19:33:41.264Z,94237.63
2023-04-09T19:36:08.349Z,94241.03
2023-04-09T19:38:35.010Z,94238.63
2023-04-09T19:41:01.618Z,94241.44
2023-04-09T19:43:28.279Z,94242.63
2023-04-09T19:45:54.959Z,94244.38
2023-04-09T19:48:21.725Z,94240.56
2023-04-09T19:50:49.080Z,94245.00
2023-04-09T19:53:15.811Z,94243.41
2023-04-09T19:55:42.448Z,94244.28
2023-04-09T19:58:09.079Z,94244.72
2023-04-09T20:00:37.026Z,94244.81
2023-04-09T20:03:05.802Z,94239.03
2023-04-09T20:05:32.771Z,94248.13
2023-04-09T20:07:59.473Z,94235.75
2023-04-09T20:10:26.245Z,94243.94
2023-04-09T20:12:52.830Z,94239.44
2023-04-09T20:15:22.584Z,94239.09
2023-04-09T20:17:50.606Z,94233.06
2023-04-09T20:20:19.907Z,94228.94
2023-04-09T20:22:55.602Z,94231.69
2023-04-09T20:25:23.212Z,94228.84
2023-04-09T20:27:52.438Z,94226.78
2023-04-09T20:30:19.125Z,94224.44
2023-04-09T20:32:45.779Z,94219.34
2023-04-09T20:35:13.583Z,94224.78
2023-04-09T20:37:40.385Z,94220.28
2023-04-09T20:40:07.498Z,94222.69
2023-04-09T20:42:34.160Z,94225.81
2023-04-09T20:45:01.784Z,94221.47
2023-04-09T20:47:28.787Z,94217.81
2023-04-09T20:49:59.717Z,94218.19
2023-04-09T20:52:29.424Z,94227.63
2023-04-09T20:54:59.047Z,94223.44
2023-04-09T20:57:25.642Z,94219.97
2023-04-09T20:59:53.895Z,94226.66
2023-04-09T21:02:21.302Z,94221.66
2023-04-09T21:04:48.115Z,94216.56
2023-04-09T21:07:14.813Z,94214.16
2023-04-09T21:09:41.616Z,94214.16
2023-04-09T21:12:08.257Z,94212.88
2023-04-09T21:14:34.872Z,94217.47
2023-04-09T21:17:02.308Z,94224.38
2023-04-09T21:19:29.016Z,94210.53
2023-04-09T21:21:55.586Z,94216.97
2023-04-09T21:24:23.047Z,94219.00
2023-04-09T21:26:52.006Z,94215.63
2023-04-09T21:29:21.323Z,94222.88
2023-04-09T21:31:48.949Z,94218.22
2023-04-09T21:34:15.920Z,94211.53
2023-04-09T21:36:44.910Z,94218.19
2023-04-09T21:39:12.119Z,94217.41
2023-04-09T21:41:38.953Z,94218.19
2023-04-09T21:44:08.496Z,94210.38
2023-04-09T21:46:37.043Z,94221.31
2023-04-09T21:49:04.462Z,94217.53
2023-04-09T21:51:32.324Z,94209.59
2023-04-09T21:54:04.344Z,94206.88
2023-04-09T21:56:31.987Z,94209.63
2023-04-09T21:58:58.746Z,94207.84
2023-04-09T22:01:29.311Z,94213.19
2023-04-09T22:03:57.909Z,94206.88
2023-04-09T22:06:24.713Z,94208.72
2023-04-09T22:08:56.208Z,94203.28
2023-04-09T22:11:28.488Z,94208.28
2023-04-09T22:13:58.628Z,94201.25
2023-04-09T22:16:26.375Z,94207.56
2023-04-09T22:18:54.193Z,94206.31
2023-04-09T22:21:21.637Z,94205.69
2023-04-09T22:23:48.331Z,94204.34
2023-04-09T22:26:15.060Z,94209.50
2023-04-09T22:28:41.630Z,94207.19
2023-04-09T22:31:08.562Z,94211.81
2023-04-09T22:33:35.444Z,94205.03
2023-04-09T22:36:02.345Z,94207.78
2023-04-09T22:38:29.105Z,94202.50
2023-04-09T22:40:56.067Z,94208.22
2023-04-09T22:43:23.273Z,94206.97
2023-04-09T22:45:52.110Z,94206.50
2023-04-09T22:48:19.725Z,94204.84
2023-04-09T22:50:47.078Z,94205.97
2023-04-09T22:53:20.848Z,94200.41
2023-04-09T22:55:50.860Z,94202.84
2023-04-09T22:58:18.800Z,94198.00
2023-04-09T23:00:47.183Z,94196.84
2023-04-09T23:03:14.345Z,94196.66
2023-04-09T23:05:41.215Z,94199.41
2023-04-09T23:08:08.021Z,94204.78
2023-04-09T23:10:34.917Z,94201.13
2023-04-09T23:13:02.216Z,94203.22
2023-04-09T23:15:28.898Z,94201.09
2023-04-09T23:17:56.213Z,94208.34
2023-04-09T23:20:23.296Z,94199.00
2023-04-09T23:22:50.321Z,94195.75
2023-04-09T23:25:17.315Z,94195.75
2023-04-09T23:27:44.230Z,94194.25
2023-04-09T23:30:11.626Z,94193.19
2023-04-09T23:32:38.433Z,94194.91
2023-04-09T23:35:05.509Z,94194.03
2023-04-09T23:37:32.226Z,94196.69
2023-04-09T23:39:58.876Z,94187.44
2023-04-09T23:42:29.928Z,94190.22
2023-04-09T23:44:56.559Z,94189.91
2023-04-09T23:47:23.258Z,94186.75
2023-04-09T23:49:50.031Z,94190.22
2023-04-09T23:52:16.654Z,94189.00
2023-04-09T23:54:49.184Z,94187.47
2023-04-09T23:57:16.207Z,94190.13
2023-04-09T23:59:42.869Z,94191.16
